sensor_id;sensor_type;location;lat;lon;timestamp;P1;durP1;ratioP1;P2;durP2;ratioP2
2618;SDS011;1319;52.346;13.096;2024-03-02T00:02:07;105.90;;;42.73;;
2618;SDS011;1319;52.346;13.096;2024-03-02T00:04:32;100.10;;;44.30;;
2618;SDS011;1319;52.346;13.096;2024-03-02T00:06:58;109.40;;;45.20;;
2618;SDS011;1319;52.346;13.096;2024-03-02T00:09:23;106.30;;;43.73;;
2618;SDS011;1319;52.346;13.096;2024-03-02T00:11:48;101.63;;;44.30;;
2618;SDS011;1319;52.346;13.096;2024-03-02T00:14:13;95.47;;;44.30;;
2618;SDS011;1319;52.346;13.096;2024-03-02T00:16:39;109.07;;;46.43;;
2618;SDS011;1319;52.346;13.096;2024-03-02T00:19:07;111.97;;;46.57;;
2618;SDS011;1319;52.346;13.096;2024-03-02T00:21:33;99.87;;;43.33;;
2618;SDS011;1319;52.346;13.096;2024-03-02T00:23:59;101.93;;;44.20;;
2618;SDS011;1319;52.346;13.096;2024-03-02T00:26:25;105.40;;;44.43;;
2618;SDS011;1319;52.346;13.096;2024-03-02T00:28:50;95.90;;;42.67;;
2618;SDS011;1319;52.346;13.096;2024-03-02T00:31:19;101.80;;;43.40;;
2618;SDS011;1319;52.346;13.096;2024-03-02T00:33:45;99.10;;;42.80;;
2618;SDS011;1319;52.346;13.096;2024-03-02T00:36:11;103.03;;;43.13;;
2618;SDS011;1319;52.346;13.096;2024-03-02T00:38:44;102.33;;;45.53;;
2618;SDS011;1319;52.346;13.096;2024-03-02T00:41:15;95.93;;;41.77;;
2618;SDS011;1319;52.346;13.096;2024-03-02T00:43:50;106.27;;;43.00;;
2618;SDS011;1319;52.346;13.096;2024-03-02T00:46:20;91.03;;;41.23;;
2618;SDS011;1319;52.346;13.096;2024-03-02T00:51:17;98.73;;;43.80;;
2618;SDS011;1319;52.346;13.096;2024-03-02T00:53:44;105.10;;;43.03;;
2618;SDS011;1319;52.346;13.096;2024-03-02T00:56:10;105.83;;;42.13;;
2618;SDS011;1319;52.346;13.096;2024-03-02T00:58:36;100.40;;;43.77;;
2618;SDS011;1319;52.346;13.096;2024-03-02T01:01:02;114.90;;;44.43;;
2618;SDS011;1319;52.346;13.096;2024-03-02T01:03:27;105.53;;;43.83;;
2618;SDS011;1319;52.346;13.096;2024-03-02T01:05:52;102.47;;;42.33;;
2618;SDS011;1319;52.346;13.096;2024-03-02T01:08:17;96.17;;;41.93;;
2618;SDS011;1319;52.346;13.096;2024-03-02T01:10:43;107.93;;;44.00;;
2618;SDS011;1319;52.346;13.096;2024-03-02T01:13:08;101.40;;;42.27;;
2618;SDS011;1319;52.346;13.096;2024-03-02T01:15:33;98.87;;;42.07;;
2618;SDS011;1319;52.346;13.096;2024-03-02T01:17:58;103.57;;;43.53;;
2618;SDS011;1319;52.346;13.096;2024-03-02T01:20:23;108.80;;;42.03;;
2618;SDS011;1319;52.346;13.096;2024-03-02T01:22:49;101.67;;;42.57;;
2618;SDS011;1319;52.346;13.096;2024-03-02T01:25:15;105.73;;;42.33;;
2618;SDS011;1319;52.346;13.096;2024-03-02T01:27:40;118.30;;;43.10;;
2618;SDS011;1319;52.346;13.096;2024-03-02T01:30:05;105.70;;;42.83;;
2618;SDS011;1319;52.346;13.096;2024-03-02T01:32:31;104.67;;;41.43;;
2618;SDS011;1319;52.346;13.096;2024-03-02T01:34:56;101.60;;;41.63;;
2618;SDS011;1319;52.346;13.096;2024-03-02T01:37:21;106.10;;;42.83;;
2618;SDS011;1319;52.346;13.096;2024-03-02T01:39:46;102.97;;;42.37;;
2618;SDS011;1319;52.346;13.096;2024-03-02T01:42:12;105.57;;;43.37;;
2618;SDS011;1319;52.346;13.096;2024-03-02T01:44:37;107.50;;;42.60;;
2618;SDS011;1319;52.346;13.096;2024-03-02T01:47:02;106.70;;;42.63;;
2618;SDS011;1319;52.346;13.096;2024-03-02T01:49:27;103.53;;;41.13;;
2618;SDS011;1319;52.346;13.096;2024-03-02T01:51:53;101.97;;;41.70;;
2618;SDS011;1319;52.346;13.096;2024-03-02T01:54:18;101.87;;;41.63;;
2618;SDS011;1319;52.346;13.096;2024-03-02T01:56:43;106.63;;;39.90;;
2618;SDS011;1319;52.346;13.096;2024-03-02T01:59:09;97.07;;;39.90;;
2618;SDS011;1319;52.346;13.096;2024-03-02T02:01:34;103.50;;;41.97;;
2618;SDS011;1319;52.346;13.096;2024-03-02T02:03:59;111.67;;;40.03;;
2618;SDS011;1319;52.346;13.096;2024-03-02T02:06:25;121.97;;;43.40;;
2618;SDS011;1319;52.346;13.096;2024-03-02T02:08:51;94.33;;;39.50;;
2618;SDS011;1319;52.346;13.096;2024-03-02T02:11:16;104.20;;;40.87;;
2618;SDS011;1319;52.346;13.096;2024-03-02T02:13:41;108.40;;;42.37;;
2618;SDS011;1319;52.346;13.096;2024-03-02T02:16:07;95.63;;;40.03;;
2618;SDS011;1319;52.346;13.096;2024-03-02T02:18:33;107.30;;;40.10;;
2618;SDS011;1319;52.346;13.096;2024-03-02T02:20:58;97.13;;;39.47;;
2618;SDS011;1319;52.346;13.096;2024-03-02T02:23:23;103.07;;;41.67;;
2618;SDS011;1319;52.346;13.096;2024-03-02T02:25:48;98.93;;;40.63;;
2618;SDS011;1319;52.346;13.096;2024-03-02T02:28:13;97.90;;;39.03;;
2618;SDS011;1319;52.346;13.096;2024-03-02T02:30:39;102.27;;;40.70;;
2618;SDS011;1319;52.346;13.096;2024-03-02T02:33:04;121.20;;;40.80;;
2618;SDS011;1319;52.346;13.096;2024-03-02T02:35:30;95.43;;;40.17;;
2618;SDS011;1319;52.346;13.096;2024-03-02T02:37:55;92.83;;;38.53;;
2618;SDS011;1319;52.346;13.096;2024-03-02T02:40:21;93.10;;;39.67;;
2618;SDS011;1319;52.346;13.096;2024-03-02T02:42:47;90.53;;;39.27;;
2618;SDS011;1319;52.346;13.096;2024-03-02T02:45:13;92.77;;;38.90;;
2618;SDS011;1319;52.346;13.096;2024-03-02T02:47:39;97.17;;;38.70;;
2618;SDS011;1319;52.346;13.096;2024-03-02T02:50:06;90.30;;;39.07;;
2618;SDS011;1319;52.346;13.096;2024-03-02T02:52:32;105.87;;;41.47;;
2618;SDS011;1319;52.346;13.096;2024-03-02T02:54:58;77.07;;;36.13;;
2618;SDS011;1319;52.346;13.096;2024-03-02T02:57:23;73.60;;;35.00;;
2618;SDS011;1319;52.346;13.096;2024-03-02T02:59:49;89.27;;;37.57;;
2618;SDS011;1319;52.346;13.096;2024-03-02T03:02:14;81.67;;;36.57;;
2618;SDS011;1319;52.346;13.096;2024-03-02T03:04:39;101.67;;;41.17;;
2618;SDS011;1319;52.346;13.096;2024-03-02T03:07:05;97.90;;;38.43;;
2618;SDS011;1319;52.346;13.096;2024-03-02T03:09:30;93.87;;;39.33;;
2618;SDS011;1319;52.346;13.096;2024-03-02T03:11:56;98.43;;;38.20;;
2618;SDS011;1319;52.346;13.096;2024-03-02T03:14:21;91.40;;;39.83;;
2618;SDS011;1319;52.346;13.096;2024-03-02T03:16:46;85.63;;;37.70;;
2618;SDS011;1319;52.346;13.096;2024-03-02T03:19:13;86.70;;;38.50;;
2618;SDS011;1319;52.346;13.096;2024-03-02T03:21:38;95.13;;;41.43;;
2618;SDS011;1319;52.346;13.096;2024-03-02T03:24:04;99.20;;;40.30;;
2618;SDS011;1319;52.346;13.096;2024-03-02T03:26:30;96.70;;;39.77;;
2618;SDS011;1319;52.346;13.096;2024-03-02T03:28:55;92.77;;;39.40;;
2618;SDS011;1319;52.346;13.096;2024-03-02T03:31:20;102.43;;;44.67;;
2618;SDS011;1319;52.346;13.096;2024-03-02T03:33:45;87.33;;;38.07;;
2618;SDS011;1319;52.346;13.096;2024-03-02T03:36:11;99.37;;;41.80;;
2618;SDS011;1319;52.346;13.096;2024-03-02T03:38:36;98.17;;;41.63;;
2618;SDS011;1319;52.346;13.096;2024-03-02T03:41:01;103.37;;;41.53;;
2618;SDS011;1319;52.346;13.096;2024-03-02T03:43:26;99.87;;;41.20;;
2618;SDS011;1319;52.346;13.096;2024-03-02T03:45:51;99.23;;;41.13;;
2618;SDS011;1319;52.346;13.096;2024-03-02T03:48:17;96.83;;;41.30;;
2618;SDS011;1319;52.346;13.096;2024-03-02T03:50:42;97.13;;;41.30;;
2618;SDS011;1319;52.346;13.096;2024-03-02T03:53:08;95.27;;;41.17;;
2618;SDS011;1319;52.346;13.096;2024-03-02T03:55:33;106.23;;;42.97;;
2618;SDS011;1319;52.346;13.096;2024-03-02T03:57:59;97.83;;;42.23;;
2618;SDS011;1319;52.346;13.096;2024-03-02T04:00:24;100.43;;;41.57;;
2618;SDS011;1319;52.346;13.096;2024-03-02T04:02:49;102.83;;;41.23;;
2618;SDS011;1319;52.346;13.096;2024-03-02T04:05:14;102.27;;;40.57;;
2618;SDS011;1319;52.346;13.096;2024-03-02T04:07:40;97.23;;;40.37;;
2618;SDS011;1319;52.346;13.096;2024-03-02T04:10:09;110.60;;;42.77;;
2618;SDS011;1319;52.346;13.096;2024-03-02T04:12:35;105.33;;;43.23;;
2618;SDS011;1319;52.346;13.096;2024-03-02T04:15:01;97.67;;;41.87;;
2618;SDS011;1319;52.346;13.096;2024-03-02T04:17:26;100.83;;;41.87;;
2618;SDS011;1319;52.346;13.096;2024-03-02T04:19:52;101.97;;;42.50;;
2618;SDS011;1319;52.346;13.096;2024-03-02T04:22:17;103.17;;;43.00;;
2618;SDS011;1319;52.346;13.096;2024-03-02T04:24:42;95.10;;;40.43;;
2618;SDS011;1319;52.346;13.096;2024-03-02T04:27:07;91.50;;;40.20;;
2618;SDS011;1319;52.346;13.096;2024-03-02T04:29:33;92.80;;;40.33;;
2618;SDS011;1319;52.346;13.096;2024-03-02T04:31:58;101.90;;;42.90;;
2618;SDS011;1319;52.346;13.096;2024-03-02T04:34:23;97.63;;;41.70;;
2618;SDS011;1319;52.346;13.096;2024-03-02T04:36:48;98.77;;;42.03;;
2618;SDS011;1319;52.346;13.096;2024-03-02T04:39:14;108.33;;;44.17;;
2618;SDS011;1319;52.346;13.096;2024-03-02T04:41:39;100.83;;;44.00;;
2618;SDS011;1319;52.346;13.096;2024-03-02T04:44:04;107.03;;;42.30;;
2618;SDS011;1319;52.346;13.096;2024-03-02T04:46:29;99.00;;;43.47;;
2618;SDS011;1319;52.346;13.096;2024-03-02T04:48:56;99.40;;;41.23;;
2618;SDS011;1319;52.346;13.096;2024-03-02T04:51:22;101.43;;;40.77;;
2618;SDS011;1319;52.346;13.096;2024-03-02T04:53:47;94.90;;;38.60;;
2618;SDS011;1319;52.346;13.096;2024-03-02T04:56:12;92.27;;;38.53;;
2618;SDS011;1319;52.346;13.096;2024-03-02T04:58:53;100.27;;;42.10;;
2618;SDS011;1319;52.346;13.096;2024-03-02T05:01:18;92.90;;;39.37;;
2618;SDS011;1319;52.346;13.096;2024-03-02T05:03:43;92.37;;;38.80;;
2618;SDS011;1319;52.346;13.096;2024-03-02T05:06:08;86.60;;;38.77;;
2618;SDS011;1319;52.346;13.096;2024-03-02T05:08:34;94.97;;;39.03;;
2618;SDS011;1319;52.346;13.096;2024-03-02T05:10:59;111.17;;;41.50;;
2618;SDS011;1319;52.346;13.096;2024-03-02T05:13:44;100.90;;;41.43;;
2618;SDS011;1319;52.346;13.096;2024-03-02T05:16:09;97.30;;;41.23;;
2618;SDS011;1319;52.346;13.096;2024-03-02T05:18:34;110.00;;;45.20;;
2618;SDS011;1319;52.346;13.096;2024-03-02T05:21:00;110.90;;;44.93;;
2618;SDS011;1319;52.346;13.096;2024-03-02T05:23:25;105.63;;;43.27;;
2618;SDS011;1319;52.346;13.096;2024-03-02T05:25:50;103.43;;;43.33;;
2618;SDS011;1319;52.346;13.096;2024-03-02T05:28:15;106.37;;;44.40;;
2618;SDS011;1319;52.346;13.096;2024-03-02T05:30:42;123.47;;;45.97;;
2618;SDS011;1319;52.346;13.096;2024-03-02T05:33:07;95.87;;;42.70;;
2618;SDS011;1319;52.346;13.096;2024-03-02T05:35:32;111.37;;;45.70;;
2618;SDS011;1319;52.346;13.096;2024-03-02T05:37:57;105.60;;;45.27;;
2618;SDS011;1319;52.346;13.096;2024-03-02T05:40:23;103.57;;;45.27;;
2618;SDS011;1319;52.346;13.096;2024-03-02T05:42:49;107.57;;;44.23;;
2618;SDS011;1319;52.346;13.096;2024-03-02T05:45:14;114.70;;;46.50;;
2618;SDS011;1319;52.346;13.096;2024-03-02T05:47:41;129.47;;;47.30;;
2618;SDS011;1319;52.346;13.096;2024-03-02T05:50:06;94.37;;;42.80;;
2618;SDS011;1319;52.346;13.096;2024-03-02T05:52:32;109.33;;;43.70;;
2618;SDS011;1319;52.346;13.096;2024-03-02T05:54:57;101.80;;;43.53;;
2618;SDS011;1319;52.346;13.096;2024-03-02T05:57:22;116.50;;;44.53;;
2618;SDS011;1319;52.346;13.096;2024-03-02T06:00:10;120.50;;;46.43;;
2618;SDS011;1319;52.346;13.096;2024-03-02T06:02:39;109.37;;;44.47;;
2618;SDS011;1319;52.346;13.096;2024-03-02T06:05:04;111.57;;;45.60;;
2618;SDS011;1319;52.346;13.096;2024-03-02T06:07:29;116.47;;;43.30;;
2618;SDS011;1319;52.346;13.096;2024-03-02T06:09:55;103.47;;;43.07;;
2618;SDS011;1319;52.346;13.096;2024-03-02T06:12:20;110.90;;;43.47;;
2618;SDS011;1319;52.346;13.096;2024-03-02T06:14:45;118.03;;;44.67;;
2618;SDS011;1319;52.346;13.096;2024-03-02T06:17:11;123.20;;;44.40;;
2618;SDS011;1319;52.346;13.096;2024-03-02T06:19:36;100.83;;;42.90;;
2618;SDS011;1319;52.346;13.096;2024-03-02T06:22:02;128.53;;;44.63;;
2618;SDS011;1319;52.346;13.096;2024-03-02T06:24:27;116.00;;;45.70;;
2618;SDS011;1319;52.346;13.096;2024-03-02T06:26:52;104.67;;;43.33;;
2618;SDS011;1319;52.346;13.096;2024-03-02T06:29:18;101.13;;;43.00;;
2618;SDS011;1319;52.346;13.096;2024-03-02T06:31:43;102.63;;;43.43;;
2618;SDS011;1319;52.346;13.096;2024-03-02T06:34:08;105.67;;;44.97;;
2618;SDS011;1319;52.346;13.096;2024-03-02T06:36:33;113.20;;;46.33;;
2618;SDS011;1319;52.346;13.096;2024-03-02T06:38:59;115.17;;;44.70;;
2618;SDS011;1319;52.346;13.096;2024-03-02T06:41:24;121.50;;;47.37;;
2618;SDS011;1319;52.346;13.096;2024-03-02T06:43:49;115.77;;;45.30;;
2618;SDS011;1319;52.346;13.096;2024-03-02T06:46:15;104.30;;;44.13;;
2618;SDS011;1319;52.346;13.096;2024-03-02T06:48:40;114.80;;;44.07;;
2618;SDS011;1319;52.346;13.096;2024-03-02T06:51:05;119.73;;;45.10;;
2618;SDS011;1319;52.346;13.096;2024-03-02T06:53:30;122.67;;;44.57;;
2618;SDS011;1319;52.346;13.096;2024-03-02T06:55:58;114.93;;;44.30;;
2618;SDS011;1319;52.346;13.096;2024-03-02T06:58:23;103.33;;;43.37;;
2618;SDS011;1319;52.346;13.096;2024-03-02T07:00:48;105.17;;;44.17;;
2618;SDS011;1319;52.346;13.096;2024-03-02T07:03:14;109.03;;;43.33;;
2618;SDS011;1319;52.346;13.096;2024-03-02T07:05:39;117.57;;;44.80;;
2618;SDS011;1319;52.346;13.096;2024-03-02T07:08:04;100.30;;;42.40;;
2618;SDS011;1319;52.346;13.096;2024-03-02T07:10:30;103.53;;;44.10;;
2618;SDS011;1319;52.346;13.096;2024-03-02T07:12:56;109.60;;;43.13;;
2618;SDS011;1319;52.346;13.096;2024-03-02T07:15:21;104.40;;;42.73;;
2618;SDS011;1319;52.346;13.096;2024-03-02T07:17:52;108.40;;;45.17;;
2618;SDS011;1319;52.346;13.096;2024-03-02T07:20:17;105.17;;;45.47;;
2618;SDS011;1319;52.346;13.096;2024-03-02T07:22:42;105.07;;;43.80;;
2618;SDS011;1319;52.346;13.096;2024-03-02T07:25:08;101.33;;;43.10;;
2618;SDS011;1319;52.346;13.096;2024-03-02T07:27:33;96.63;;;42.00;;
2618;SDS011;1319;52.346;13.096;2024-03-02T07:30:00;101.30;;;43.47;;
2618;SDS011;1319;52.346;13.096;2024-03-02T07:32:25;94.77;;;42.53;;
2618;SDS011;1319;52.346;13.096;2024-03-02T07:34:50;98.20;;;43.47;;
2618;SDS011;1319;52.346;13.096;2024-03-02T07:37:16;91.57;;;42.10;;
2618;SDS011;1319;52.346;13.096;2024-03-02T07:39:41;98.67;;;44.13;;
2618;SDS011;1319;52.346;13.096;2024-03-02T07:42:06;100.37;;;42.27;;
2618;SDS011;1319;52.346;13.096;2024-03-02T07:44:32;105.67;;;42.60;;
2618;SDS011;1319;52.346;13.096;2024-03-02T07:46:57;95.03;;;41.10;;
2618;SDS011;1319;52.346;13.096;2024-03-02T07:49:22;97.67;;;42.17;;
2618;SDS011;1319;52.346;13.096;2024-03-02T07:51:47;95.13;;;42.50;;
2618;SDS011;1319;52.346;13.096;2024-03-02T07:54:13;94.17;;;41.93;;
2618;SDS011;1319;52.346;13.096;2024-03-02T07:56:38;94.47;;;42.10;;
2618;SDS011;1319;52.346;13.096;2024-03-02T07:59:03;96.77;;;41.90;;
2618;SDS011;1319;52.346;13.096;2024-03-02T08:01:30;91.33;;;40.57;;
2618;SDS011;1319;52.346;13.096;2024-03-02T08:03:59;89.87;;;41.73;;
2618;SDS011;1319;52.346;13.096;2024-03-02T08:06:25;100.57;;;43.00;;
2618;SDS011;1319;52.346;13.096;2024-03-02T08:08:53;92.50;;;41.67;;
2618;SDS011;1319;52.346;13.096;2024-03-02T08:11:18;95.63;;;42.27;;
2618;SDS011;1319;52.346;13.096;2024-03-02T08:13:43;85.67;;;40.53;;
2618;SDS011;1319;52.346;13.096;2024-03-02T08:16:09;84.10;;;40.60;;
2618;SDS011;1319;52.346;13.096;2024-03-02T08:18:34;91.77;;;42.53;;
2618;SDS011;1319;52.346;13.096;2024-03-02T08:21:00;95.13;;;42.93;;
2618;SDS011;1319;52.346;13.096;2024-03-02T08:23:25;92.97;;;41.97;;
2618;SDS011;1319;52.346;13.096;2024-03-02T08:25:50;85.10;;;40.57;;
2618;SDS011;1319;52.346;13.096;2024-03-02T08:28:17;86.83;;;40.10;;
2618;SDS011;1319;52.346;13.096;2024-03-02T08:30:42;84.77;;;40.20;;
2618;SDS011;1319;52.346;13.096;2024-03-02T08:33:07;87.07;;;39.30;;
2618;SDS011;1319;52.346;13.096;2024-03-02T08:35:33;82.07;;;39.53;;
2618;SDS011;1319;52.346;13.096;2024-03-02T08:38:01;90.03;;;40.50;;
2618;SDS011;1319;52.346;13.096;2024-03-02T08:40:27;93.63;;;40.70;;
2618;SDS011;1319;52.346;13.096;2024-03-02T08:42:52;86.53;;;39.70;;
2618;SDS011;1319;52.346;13.096;2024-03-02T08:45:17;81.77;;;39.37;;
2618;SDS011;1319;52.346;13.096;2024-03-02T08:47:45;83.90;;;39.43;;
2618;SDS011;1319;52.346;13.096;2024-03-02T08:50:10;81.23;;;39.33;;
2618;SDS011;1319;52.346;13.096;2024-03-02T08:52:35;85.90;;;38.67;;
2618;SDS011;1319;52.346;13.096;2024-03-02T08:55:01;75.33;;;36.50;;
2618;SDS011;1319;52.346;13.096;2024-03-02T08:57:26;78.03;;;37.03;;
2618;SDS011;1319;52.346;13.096;2024-03-02T08:59:51;71.20;;;35.43;;
2618;SDS011;1319;52.346;13.096;2024-03-02T09:02:18;69.40;;;34.00;;
2618;SDS011;1319;52.346;13.096;2024-03-02T09:04:43;71.60;;;34.97;;
2618;SDS011;1319;52.346;13.096;2024-03-02T09:07:08;68.87;;;33.90;;
2618;SDS011;1319;52.346;13.096;2024-03-02T09:09:33;68.23;;;33.47;;
2618;SDS011;1319;52.346;13.096;2024-03-02T09:11:58;65.73;;;33.23;;
2618;SDS011;1319;52.346;13.096;2024-03-02T09:14:24;63.70;;;33.40;;
2618;SDS011;1319;52.346;13.096;2024-03-02T09:16:49;69.43;;;33.37;;
2618;SDS011;1319;52.346;13.096;2024-03-02T09:19:14;66.70;;;32.73;;
2618;SDS011;1319;52.346;13.096;2024-03-02T09:21:41;63.13;;;32.57;;
2618;SDS011;1319;52.346;13.096;2024-03-02T09:24:06;60.13;;;31.30;;
2618;SDS011;1319;52.346;13.096;2024-03-02T09:26:31;67.10;;;32.93;;
2618;SDS011;1319;52.346;13.096;2024-03-02T09:28:57;60.37;;;31.67;;
2618;SDS011;1319;52.346;13.096;2024-03-02T09:31:22;62.03;;;30.57;;
2618;SDS011;1319;52.346;13.096;2024-03-02T09:33:47;57.50;;;29.50;;
2618;SDS011;1319;52.346;13.096;2024-03-02T09:36:19;64.13;;;31.90;;
2618;SDS011;1319;52.346;13.096;2024-03-02T09:38:44;64.17;;;33.07;;
2618;SDS011;1319;52.346;13.096;2024-03-02T09:41:09;62.30;;;31.97;;
2618;SDS011;1319;52.346;13.096;2024-03-02T09:43:35;60.03;;;30.97;;
2618;SDS011;1319;52.346;13.096;2024-03-02T09:46:00;60.77;;;31.47;;
2618;SDS011;1319;52.346;13.096;2024-03-02T09:48:25;62.30;;;30.33;;
2618;SDS011;1319;52.346;13.096;2024-03-02T09:50:50;63.60;;;32.33;;
2618;SDS011;1319;52.346;13.096;2024-03-02T09:53:16;63.57;;;31.33;;
2618;SDS011;1319;52.346;13.096;2024-03-02T09:55:45;61.47;;;30.67;;
2618;SDS011;1319;52.346;13.096;2024-03-02T09:58:11;58.63;;;30.60;;
2618;SDS011;1319;52.346;13.096;2024-03-02T10:00:37;57.00;;;30.17;;
2618;SDS011;1319;52.346;13.096;2024-03-02T10:03:02;60.03;;;29.67;;
2618;SDS011;1319;52.346;13.096;2024-03-02T10:05:27;60.83;;;30.07;;
2618;SDS011;1319;52.346;13.096;2024-03-02T10:08:01;55.13;;;28.43;;
2618;SDS011;1319;52.346;13.096;2024-03-02T10:10:34;53.20;;;28.40;;
2618;SDS011;1319;52.346;13.096;2024-03-02T10:13:03;55.33;;;29.20;;
2618;SDS011;1319;52.346;13.096;2024-03-02T10:15:28;57.00;;;29.63;;
2618;SDS011;1319;52.346;13.096;2024-03-02T10:17:53;56.90;;;29.03;;
2618;SDS011;1319;52.346;13.096;2024-03-02T10:20:22;49.63;;;26.13;;
2618;SDS011;1319;52.346;13.096;2024-03-02T10:22:51;47.70;;;25.83;;
2618;SDS011;1319;52.346;13.096;2024-03-02T10:25:31;48.00;;;25.57;;
2618;SDS011;1319;52.346;13.096;2024-03-02T10:28:00;54.00;;;26.33;;
2618;SDS011;1319;52.346;13.096;2024-03-02T10:30:27;46.10;;;26.00;;
2618;SDS011;1319;52.346;13.096;2024-03-02T10:32:56;46.00;;;26.53;;
2618;SDS011;1319;52.346;13.096;2024-03-02T10:35:21;46.33;;;25.53;;
2618;SDS011;1319;52.346;13.096;2024-03-02T10:37:48;48.00;;;26.10;;
2618;SDS011;1319;52.346;13.096;2024-03-02T10:40:13;44.63;;;24.97;;
2618;SDS011;1319;52.346;13.096;2024-03-02T10:42:39;46.40;;;24.40;;
2618;SDS011;1319;52.346;13.096;2024-03-02T10:45:05;46.83;;;23.03;;
2618;SDS011;1319;52.346;13.096;2024-03-02T10:47:31;45.63;;;24.13;;
2618;SDS011;1319;52.346;13.096;2024-03-02T10:49:56;47.37;;;24.20;;
2618;SDS011;1319;52.346;13.096;2024-03-02T10:52:24;42.17;;;23.17;;
2618;SDS011;1319;52.346;13.096;2024-03-02T10:54:49;42.83;;;22.97;;
2618;SDS011;1319;52.346;13.096;2024-03-02T10:57:14;41.90;;;24.17;;
2618;SDS011;1319;52.346;13.096;2024-03-02T10:59:51;42.70;;;23.70;;
2618;SDS011;1319;52.346;13.096;2024-03-02T11:02:17;43.60;;;22.87;;
2618;SDS011;1319;52.346;13.096;2024-03-02T11:04:42;37.10;;;21.03;;
2618;SDS011;1319;52.346;13.096;2024-03-02T11:07:09;36.23;;;21.87;;
2618;SDS011;1319;52.346;13.096;2024-03-02T11:09:40;34.60;;;20.33;;
2618;SDS011;1319;52.346;13.096;2024-03-02T11:12:16;38.17;;;21.03;;
2618;SDS011;1319;52.346;13.096;2024-03-02T11:14:43;36.97;;;21.60;;
2618;SDS011;1319;52.346;13.096;2024-03-02T11:17:08;36.57;;;20.83;;
2618;SDS011;1319;52.346;13.096;2024-03-02T11:19:34;31.77;;;20.00;;
2618;SDS011;1319;52.346;13.096;2024-03-02T11:21:59;38.13;;;20.50;;
2618;SDS011;1319;52.346;13.096;2024-03-02T11:27:04;33.87;;;19.90;;
2618;SDS011;1319;52.346;13.096;2024-03-02T11:29:47;34.73;;;20.40;;
2618;SDS011;1319;52.346;13.096;2024-03-02T11:34:42;33.67;;;20.53;;
2618;SDS011;1319;52.346;13.096;2024-03-02T11:37:12;30.30;;;19.30;;
2618;SDS011;1319;52.346;13.096;2024-03-02T11:39:38;32.10;;;19.33;;
2618;SDS011;1319;52.346;13.096;2024-03-02T11:42:05;32.50;;;18.63;;
2618;SDS011;1319;52.346;13.096;2024-03-02T11:44:30;30.67;;;19.30;;
2618;SDS011;1319;52.346;13.096;2024-03-02T11:46:58;31.73;;;19.90;;
2618;SDS011;1319;52.346;13.096;2024-03-02T11:52:04;34.37;;;19.17;;
2618;SDS011;1319;52.346;13.096;2024-03-02T11:54:30;31.85;;;19.10;;
2618;SDS011;1319;52.346;13.096;2024-03-02T11:56:58;30.00;;;17.00;;
2618;SDS011;1319;52.346;13.096;2024-03-02T11:59:28;27.17;;;18.10;;
2618;SDS011;1319;52.346;13.096;2024-03-02T12:01:53;26.63;;;17.53;;
2618;SDS011;1319;52.346;13.096;2024-03-02T12:04:18;31.03;;;17.73;;
2618;SDS011;1319;52.346;13.096;2024-03-02T12:06:44;33.10;;;21.17;;
2618;SDS011;1319;52.346;13.096;2024-03-02T12:09:11;31.03;;;17.80;;
2618;SDS011;1319;52.346;13.096;2024-03-02T12:11:37;29.47;;;17.63;;
2618;SDS011;1319;52.346;13.096;2024-03-02T12:14:02;28.03;;;16.93;;
2618;SDS011;1319;52.346;13.096;2024-03-02T12:16:29;31.00;;;18.33;;
2618;SDS011;1319;52.346;13.096;2024-03-02T12:18:54;30.63;;;18.50;;
2618;SDS011;1319;52.346;13.096;2024-03-02T12:21:20;31.70;;;19.20;;
2618;SDS011;1319;52.346;13.096;2024-03-02T12:23:45;32.63;;;18.87;;
2618;SDS011;1319;52.346;13.096;2024-03-02T12:26:10;28.87;;;17.23;;
2618;SDS011;1319;52.346;13.096;2024-03-02T12:28:36;28.93;;;18.53;;
2618;SDS011;1319;52.346;13.096;2024-03-02T12:31:01;32.37;;;18.97;;
2618;SDS011;1319;52.346;13.096;2024-03-02T12:33:27;32.07;;;18.83;;
2618;SDS011;1319;52.346;13.096;2024-03-02T12:35:54;29.80;;;18.70;;
2618;SDS011;1319;52.346;13.096;2024-03-02T12:38:19;30.00;;;17.73;;
2618;SDS011;1319;52.346;13.096;2024-03-02T12:40:44;30.57;;;18.43;;
2618;SDS011;1319;52.346;13.096;2024-03-02T12:43:09;27.03;;;18.13;;
2618;SDS011;1319;52.346;13.096;2024-03-02T12:45:36;31.47;;;17.90;;
2618;SDS011;1319;52.346;13.096;2024-03-02T12:48:01;30.23;;;18.23;;
2618;SDS011;1319;52.346;13.096;2024-03-02T12:50:27;29.70;;;18.20;;
2618;SDS011;1319;52.346;13.096;2024-03-02T12:52:53;30.17;;;19.03;;
2618;SDS011;1319;52.346;13.096;2024-03-02T12:55:18;31.17;;;18.83;;
2618;SDS011;1319;52.346;13.096;2024-03-02T12:57:44;33.70;;;19.57;;
2618;SDS011;1319;52.346;13.096;2024-03-02T13:00:10;32.97;;;18.47;;
2618;SDS011;1319;52.346;13.096;2024-03-02T13:02:36;33.10;;;19.90;;
2618;SDS011;1319;52.346;13.096;2024-03-02T13:05:02;34.67;;;19.17;;
2618;SDS011;1319;52.346;13.096;2024-03-02T13:07:28;34.33;;;18.87;;
2618;SDS011;1319;52.346;13.096;2024-03-02T13:09:55;29.07;;;17.50;;
2618;SDS011;1319;52.346;13.096;2024-03-02T13:12:21;27.47;;;17.63;;
2618;SDS011;1319;52.346;13.096;2024-03-02T13:14:52;27.87;;;17.03;;
2618;SDS011;1319;52.346;13.096;2024-03-02T13:17:18;31.87;;;17.23;;
2618;SDS011;1319;52.346;13.096;2024-03-02T13:19:53;26.80;;;15.67;;
2618;SDS011;1319;52.346;13.096;2024-03-02T13:22:23;26.13;;;16.30;;
2618;SDS011;1319;52.346;13.096;2024-03-02T13:24:49;27.37;;;16.33;;
2618;SDS011;1319;52.346;13.096;2024-03-02T13:27:14;26.40;;;14.90;;
2618;SDS011;1319;52.346;13.096;2024-03-02T13:29:39;24.67;;;15.50;;
2618;SDS011;1319;52.346;13.096;2024-03-02T13:32:06;26.37;;;15.17;;
2618;SDS011;1319;52.346;13.096;2024-03-02T13:34:31;25.10;;;13.67;;
2618;SDS011;1319;52.346;13.096;2024-03-02T13:36:56;23.63;;;13.30;;
2618;SDS011;1319;52.346;13.096;2024-03-02T13:39:21;21.30;;;12.43;;
2618;SDS011;1319;52.346;13.096;2024-03-02T13:41:47;18.33;;;12.00;;
2618;SDS011;1319;52.346;13.096;2024-03-02T13:44:18;21.37;;;12.07;;
2618;SDS011;1319;52.346;13.096;2024-03-02T13:46:43;17.97;;;12.00;;
2618;SDS011;1319;52.346;13.096;2024-03-02T13:49:10;19.00;;;11.67;;
2618;SDS011;1319;52.346;13.096;2024-03-02T13:51:35;18.40;;;11.70;;
2618;SDS011;1319;52.346;13.096;2024-03-02T13:54:01;19.23;;;12.30;;
2618;SDS011;1319;52.346;13.096;2024-03-02T13:56:28;24.30;;;12.20;;
2618;SDS011;1319;52.346;13.096;2024-03-02T13:58:53;19.17;;;12.70;;
2618;SDS011;1319;52.346;13.096;2024-03-02T14:01:18;19.13;;;11.60;;
2618;SDS011;1319;52.346;13.096;2024-03-02T14:03:44;22.10;;;12.00;;
2618;SDS011;1319;52.346;13.096;2024-03-02T14:06:11;22.63;;;12.60;;
2618;SDS011;1319;52.346;13.096;2024-03-02T14:08:36;20.10;;;11.97;;
2618;SDS011;1319;52.346;13.096;2024-03-02T14:11:01;20.90;;;13.03;;
2618;SDS011;1319;52.346;13.096;2024-03-02T14:13:27;18.90;;;11.80;;
2618;SDS011;1319;52.346;13.096;2024-03-02T14:15:54;22.00;;;12.67;;
2618;SDS011;1319;52.346;13.096;2024-03-02T14:18:19;17.70;;;11.60;;
2618;SDS011;1319;52.346;13.096;2024-03-02T14:20:46;19.53;;;11.57;;
2618;SDS011;1319;52.346;13.096;2024-03-02T14:23:17;16.13;;;10.40;;
2618;SDS011;1319;52.346;13.096;2024-03-02T14:25:42;15.30;;;10.30;;
2618;SDS011;1319;52.346;13.096;2024-03-02T14:28:07;14.20;;;9.40;;
2618;SDS011;1319;52.346;13.096;2024-03-02T14:30:33;14.87;;;9.77;;
2618;SDS011;1319;52.346;13.096;2024-03-02T14:32:59;14.93;;;9.63;;
2618;SDS011;1319;52.346;13.096;2024-03-02T14:35:24;16.98;;;10.85;;